FPO weather

Grand Bahama International Airport
Freeport, Freeport, Bahamas

Public forecast

Using degrees Celsius for public forecast. Weather courtesy of forecast.io.

Current aviation weather report (METAR) for Grand Bahama International Airport

Retrieved 2019/11/22 13:00 UTC (1 hour ago):

MYGF 221300Z 08007KT 9999 SCT030 20/16 A3013

Aviation forecast (TAF) for Grand Bahama International Airport

Retrieved 2019/11/22 12:42 UTC (1 hour ago):

TAF TAF MYGF 221050Z 2212/2312 08011KT 9999 SCT030 BECMG 2216/2218 BKN040